Time;durP1;ratioP1;P1;durP2;ratioP2;P2;SDS_P1;SDS_P2;PMS_P1;PMS_P2;Temp;Humidity;BMP_temperature;BMP_pressure;BME280_temperature;BME280_humidity;BME280_pressure;Samples;Min_cycle;Max_cycle;Signal;HPM_P1;HPM_P2
2024/03/10 00:01:05;;;;;;;31.70;20.93;;;;;;;;;;4975457;28;20746;-76
2024/03/10 00:03:31;;;;;;;36.90;23.53;;;;;;;;;;4975728;28;20428;-76
2024/03/10 00:05:56;;;;;;;36.47;22.40;;;;;;;;;;4975718;28;20903;-76
2024/03/10 00:08:23;;;;;;;38.00;21.97;;;;;;;;;;4975616;28;20420;-76
2024/03/10 00:10:49;;;;;;;34.93;22.03;;;;;;;;;;4975548;28;20439;-76
2024/03/10 00:13:15;;;;;;;37.10;23.00;;;;;;;;;;4975606;28;20420;-76
2024/03/10 00:15:41;;;;;;;36.90;22.10;;;;;;;;;;4975100;28;20475;-76
2024/03/10 00:18:07;;;;;;;35.13;23.13;;;;;;;;;;4975309;28;20517;-76
2024/03/10 00:20:33;;;;;;;36.70;21.30;;;;;;;;;;4975461;28;20504;-77
2024/03/10 00:22:59;;;;;;;32.60;20.67;;;;;;;;;;4990384;28;20419;-77
2024/03/10 00:25:26;;;;;;;32.50;22.47;;;;;;;;;;4990320;28;20429;-76
2024/03/10 00:27:52;;;;;;;39.53;22.50;;;;;;;;;;4975312;28;20423;-77
2024/03/10 00:30:18;;;;;;;35.13;22.50;;;;;;;;;;4974966;28;20418;-76
2024/03/10 00:32:44;;;;;;;32.03;20.50;;;;;;;;;;4975262;28;20518;-77
2024/03/10 00:35:10;;;;;;;40.67;21.53;;;;;;;;;;4975045;28;20925;-78
2024/03/10 00:37:38;;;;;;;32.20;21.83;;;;;;;;;;4975071;28;20409;-77
2024/03/10 00:40:05;;;;;;;36.13;20.93;;;;;;;;;;4975022;28;20415;-76
2024/03/10 00:42:31;;;;;;;38.60;23.90;;;;;;;;;;4974705;28;20824;-77
2024/03/10 00:44:59;;;;;;;34.07;21.40;;;;;;;;;;4974995;28;20421;-76
2024/03/10 00:47:26;;;;;;;35.10;23.47;;;;;;;;;;4974561;28;20404;-76
2024/03/10 00:49:52;;;;;;;34.30;20.63;;;;;;;;;;4974913;28;20418;-76
2024/03/10 00:52:17;;;;;;;32.67;19.00;;;;;;;;;;4974808;28;20801;-77
2024/03/10 00:54:43;;;;;;;35.27;23.07;;;;;;;;;;4974781;28;21048;-77
2024/03/10 00:57:09;;;;;;;32.87;21.63;;;;;;;;;;4989774;28;20412;-76
2024/03/10 00:59:35;;;;;;;35.17;23.03;;;;;;;;;;4975084;28;20495;-77
2024/03/10 01:02:02;;;;;;;39.20;24.90;;;;;;;;;;4974417;28;20426;-77
2024/03/10 01:04:28;;;;;;;36.80;22.50;;;;;;;;;;4974634;28;20427;-77
2024/03/10 01:06:54;;;;;;;34.77;21.80;;;;;;;;;;4974609;28;20811;-77
2024/03/10 01:09:20;;;;;;;32.70;22.00;;;;;;;;;;4974634;28;20447;-76
2024/03/10 01:11:50;;;;;;;30.80;20.17;;;;;;;;;;4974644;28;20411;-76
2024/03/10 01:14:17;;;;;;;33.27;20.67;;;;;;;;;;4974416;28;20507;-76
2024/03/10 01:16:43;;;;;;;36.07;21.30;;;;;;;;;;4974119;28;20505;-76
2024/03/10 01:19:09;;;;;;;32.20;20.50;;;;;;;;;;4974306;28;20495;-77
2024/03/10 01:21:35;;;;;;;39.33;22.27;;;;;;;;;;4974469;28;20420;-77
2024/03/10 01:24:02;;;;;;;36.43;21.87;;;;;;;;;;4974384;28;20440;-77
2024/03/10 01:26:28;;;;;;;36.37;21.70;;;;;;;;;;4974287;28;20415;-77
2024/03/10 01:28:54;;;;;;;35.67;21.00;;;;;;;;;;4974280;28;20409;-77
2024/03/10 01:31:22;;;;;;;37.77;21.40;;;;;;;;;;4973976;28;20574;-76
2024/03/10 01:33:48;;;;;;;34.40;20.70;;;;;;;;;;4974287;28;20443;-76
2024/03/10 01:36:14;;;;;;;32.03;21.60;;;;;;;;;;4974194;28;20554;-76
2024/03/10 01:38:40;;;;;;;35.70;21.83;;;;;;;;;;4974247;28;20532;-76
2024/03/10 01:41:06;;;;;;;34.33;20.30;;;;;;;;;;4974249;28;20472;-77
2024/03/10 01:43:33;;;;;;;33.77;20.60;;;;;;;;;;4974243;28;20436;-76
2024/03/10 01:46:06;;;;;;;35.53;21.27;;;;;;;;;;4973779;28;20483;-76
2024/03/10 01:48:32;;;;;;;35.00;20.13;;;;;;;;;;4974307;28;20448;-76
2024/03/10 01:50:58;;;;;;;34.40;21.90;;;;;;;;;;4974189;28;20454;-76
2024/03/10 01:53:24;;;;;;;40.40;21.97;;;;;;;;;;4975617;28;20410;-76
2024/03/10 01:55:50;;;;;;;33.80;21.00;;;;;;;;;;4978011;28;20479;-77
2024/03/10 01:58:16;;;;;;;35.73;22.27;;;;;;;;;;4978077;28;20407;-77
2024/03/10 02:00:44;;;;;;;32.47;21.50;;;;;;;;;;4977792;28;20775;-77
2024/03/10 02:03:11;;;;;;;41.43;23.07;;;;;;;;;;4978020;28;20423;-77
2024/03/10 02:05:37;;;;;;;36.43;21.53;;;;;;;;;;4977979;28;20908;-77
2024/03/10 02:08:03;;;;;;;33.50;21.30;;;;;;;;;;4977868;28;20415;-78
2024/03/10 02:10:29;;;;;;;35.13;21.20;;;;;;;;;;4977849;28;20472;-78
2024/03/10 02:12:55;;;;;;;37.60;22.57;;;;;;;;;;4977758;28;20430;-78
2024/03/10 02:15:22;;;;;;;32.20;21.83;;;;;;;;;;4977371;28;20830;-80
2024/03/10 02:17:48;;;;;;;33.23;20.80;;;;;;;;;;4977390;28;20498;-78
2024/03/10 02:20:20;;;;;;;36.43;21.20;;;;;;;;;;4977540;28;20420;-78
2024/03/10 02:22:46;;;;;;;35.80;21.47;;;;;;;;;;4977615;28;20408;-78
2024/03/10 02:25:13;;;;;;;33.97;21.27;;;;;;;;;;4977560;28;20415;-77
2024/03/10 02:27:44;;;;;;;38.73;21.23;;;;;;;;;;4977502;28;20408;-77
2024/03/10 02:30:29;;;;;;;40.77;21.77;;;;;;;;;;4992181;28;20900;-79
2024/03/10 02:49:36;;;;;;;37.23;22.67;;;;;;;;;;4977189;28;20406;-80
2024/03/10 02:52:03;;;;;;;39.17;23.47;;;;;;;;;;4977083;28;20412;-79
2024/03/10 02:54:29;;;;;;;38.80;23.90;;;;;;;;;;4976945;28;20486;-78
2024/03/10 02:56:55;;;;;;;37.80;22.53;;;;;;;;;;4976993;28;20913;-78
2024/03/10 02:59:21;;;;;;;33.90;20.90;;;;;;;;;;4976912;28;20960;-78
2024/03/10 03:01:47;;;;;;;37.43;22.03;;;;;;;;;;4976468;28;20415;-78
2024/03/10 03:04:12;;;;;;;38.37;21.83;;;;;;;;;;4976605;28;20781;-79
2024/03/10 03:06:38;;;;;;;38.13;21.90;;;;;;;;;;4976741;28;20411;-81
2024/03/10 03:09:05;;;;;;;33.83;24.60;;;;;;;;;;4976790;28;20430;-78
2024/03/10 03:11:31;;;;;;;37.20;22.30;;;;;;;;;;4976754;28;20418;-77
2024/03/10 03:13:57;;;;;;;37.57;22.53;;;;;;;;;;4976650;28;20418;-77
2024/03/10 03:16:24;;;;;;;35.57;21.50;;;;;;;;;;4976257;28;20433;-78
2024/03/10 03:18:50;;;;;;;35.63;21.70;;;;;;;;;;4976441;28;20982;-78
2024/03/10 03:21:16;;;;;;;33.70;23.80;;;;;;;;;;4976570;28;20423;-78
2024/03/10 03:23:42;;;;;;;33.63;21.83;;;;;;;;;;4976559;28;20422;-82
2024/03/10 03:26:08;;;;;;;40.33;22.53;;;;;;;;;;4976489;28;20425;-78
2024/03/10 03:28:34;;;;;;;37.73;24.07;;;;;;;;;;4976383;28;20412;-78
2024/03/10 03:31:00;;;;;;;39.97;23.93;;;;;;;;;;4975982;28;20424;-78
2024/03/10 03:33:26;;;;;;;37.00;22.23;;;;;;;;;;4976328;28;20925;-78
2024/03/10 03:35:52;;;;;;;43.93;25.87;;;;;;;;;;4976218;28;20528;-81
2024/03/10 03:38:18;;;;;;;34.90;22.70;;;;;;;;;;4976251;28;20419;-86
2024/03/10 03:40:44;;;;;;;42.77;24.13;;;;;;;;;;4976244;28;20858;-82
2024/03/10 03:43:10;;;;;;;38.50;21.50;;;;;;;;;;4976168;28;20439;-83
2024/03/10 03:45:37;;;;;;;42.23;22.97;;;;;;;;;;4975842;28;20426;-77
2024/03/10 03:48:04;;;;;;;38.70;22.50;;;;;;;;;;4976030;28;20707;-79
2024/03/10 03:50:30;;;;;;;39.37;24.87;;;;;;;;;;4976066;28;21185;-76
2024/03/10 03:52:56;;;;;;;40.10;24.67;;;;;;;;;;4975951;28;20528;-79
2024/03/10 03:55:22;;;;;;;35.93;22.20;;;;;;;;;;4975809;28;20573;-78
2024/03/10 03:57:49;;;;;;;38.33;23.50;;;;;;;;;;4990789;28;20420;-85
2024/03/10 04:00:17;;;;;;;36.93;22.60;;;;;;;;;;4975430;28;20416;-77
2024/03/10 04:02:46;;;;;;;39.93;22.43;;;;;;;;;;4975850;28;20512;-76
2024/03/10 04:05:12;;;;;;;37.03;22.40;;;;;;;;;;4975762;28;20423;-83
2024/03/10 04:07:38;;;;;;;38.73;22.83;;;;;;;;;;4975686;28;20764;-78
2024/03/10 04:10:06;;;;;;;37.33;22.50;;;;;;;;;;4975632;28;20427;-81
2024/03/10 04:12:32;;;;;;;37.33;22.33;;;;;;;;;;4975593;28;20420;-83
2024/03/10 04:14:58;;;;;;;37.17;24.00;;;;;;;;;;4975057;28;20475;-78
2024/03/10 04:17:24;;;;;;;32.53;22.20;;;;;;;;;;4974800;28;20527;-79
2024/03/10 04:19:51;;;;;;;41.47;25.80;;;;;;;;;;4975468;28;20985;-80
2024/03/10 04:22:18;;;;;;;41.43;25.30;;;;;;;;;;4974436;28;20456;-78
2024/03/10 04:24:45;;;;;;;40.80;22.83;;;;;;;;;;4975299;28;20865;-78
2024/03/10 04:27:11;;;;;;;40.90;24.23;;;;;;;;;;4975358;28;20470;-81
2024/03/10 04:29:37;;;;;;;41.10;25.10;;;;;;;;;;4975016;28;20500;-77
2024/03/10 04:32:06;;;;;;;36.97;24.63;;;;;;;;;;4975297;28;20416;-84
2024/03/10 04:34:33;;;;;;;44.87;23.47;;;;;;;;;;4975187;28;20457;-83
2024/03/10 04:36:59;;;;;;;37.20;22.73;;;;;;;;;;4975137;28;20460;-82
2024/03/10 04:39:25;;;;;;;43.63;24.80;;;;;;;;;;4975134;28;20518;-77
2024/03/10 04:41:54;;;;;;;42.13;23.97;;;;;;;;;;4975015;28;20538;-77
2024/03/10 04:44:20;;;;;;;40.57;24.03;;;;;;;;;;4975016;28;20759;-78
2024/03/10 04:46:46;;;;;;;41.43;24.83;;;;;;;;;;4974683;28;20463;-82
2024/03/10 04:49:12;;;;;;;40.20;25.10;;;;;;;;;;4974950;28;20404;-78
2024/03/10 04:51:39;;;;;;;44.07;24.57;;;;;;;;;;4974974;28;20443;-79
2024/03/10 04:54:05;;;;;;;35.77;23.63;;;;;;;;;;4974790;28;20423;-78
2024/03/10 04:56:35;;;;;;;41.70;25.90;;;;;;;;;;4974825;28;20415;-77
2024/03/10 04:59:01;;;;;;;34.57;22.53;;;;;;;;;;4974731;28;20415;-77
2024/03/10 05:01:28;;;;;;;35.33;22.70;;;;;;;;;;4974518;28;20426;-76
2024/03/10 05:03:53;;;;;;;36.33;21.93;;;;;;;;;;4974715;28;20511;-84
2024/03/10 05:06:19;;;;;;;35.40;22.77;;;;;;;;;;4974693;28;20503;-77
2024/03/10 05:08:46;;;;;;;40.87;26.60;;;;;;;;;;4974664;28;20423;-77
2024/03/10 05:11:12;;;;;;;37.30;23.17;;;;;;;;;;4974554;28;20493;-85
2024/03/10 05:13:38;;;;;;;38.70;23.53;;;;;;;;;;4989514;28;20427;-80
2024/03/10 05:16:05;;;;;;;39.67;23.13;;;;;;;;;;4974074;28;20486;-82
2024/03/10 05:18:32;;;;;;;39.60;24.27;;;;;;;;;;4974286;28;20490;-78
2024/03/10 05:20:58;;;;;;;35.87;25.10;;;;;;;;;;4974527;28;20454;-83
2024/03/10 05:23:24;;;;;;;38.00;22.97;;;;;;;;;;4974408;28;20400;-78
2024/03/10 05:25:50;;;;;;;41.37;25.10;;;;;;;;;;4974519;28;20806;-79
2024/03/10 05:28:17;;;;;;;37.17;23.77;;;;;;;;;;4989361;28;20420;-80
2024/03/10 05:30:44;;;;;;;45.83;25.97;;;;;;;;;;4973972;28;20419;-77
2024/03/10 05:33:10;;;;;;;39.60;25.20;;;;;;;;;;4974375;28;20766;-81
2024/03/10 05:35:37;;;;;;;48.93;26.90;;;;;;;;;;4974241;28;20472;-78
2024/03/10 05:38:03;;;;;;;36.60;23.13;;;;;;;;;;4974266;28;20436;-79
2024/03/10 05:40:29;;;;;;;41.07;24.00;;;;;;;;;;4974193;28;20974;-78
2024/03/10 05:42:55;;;;;;;42.67;24.83;;;;;;;;;;4974067;28;20442;-78
2024/03/10 05:45:21;;;;;;;32.60;21.80;;;;;;;;;;4973765;28;20411;-77
2024/03/10 05:47:50;;;;;;;44.33;24.93;;;;;;;;;;4974274;28;20467;-81
2024/03/10 05:50:17;;;;;;;40.73;23.53;;;;;;;;;;4974090;28;20415;-82
2024/03/10 05:52:43;;;;;;;37.53;24.07;;;;;;;;;;4974211;28;20410;-77
2024/03/10 05:55:09;;;;;;;40.27;23.53;;;;;;;;;;4973834;28;20492;-80
2024/03/10 05:57:35;;;;;;;39.23;25.53;;;;;;;;;;4974162;28;20454;-78
2024/03/10 06:00:05;;;;;;;38.83;24.50;;;;;;;;;;4975136;28;20779;-77
2024/03/10 06:02:31;;;;;;;38.73;24.07;;;;;;;;;;4989048;28;20444;-80
2024/03/10 06:04:57;;;;;;;41.03;24.43;;;;;;;;;;4974086;28;20772;-79
2024/03/10 06:07:23;;;;;;;50.67;27.30;;;;;;;;;;4974064;28;20426;-79
2024/03/10 06:09:49;;;;;;;36.17;23.77;;;;;;;;;;4988866;28;20419;-78
2024/03/10 06:12:15;;;;;;;43.30;23.83;;;;;;;;;;4974030;28;20634;-78
2024/03/10 06:14:41;;;;;;;40.17;25.47;;;;;;;;;;4973488;28;20532;-79
2024/03/10 06:17:08;;;;;;;39.13;26.00;;;;;;;;;;4988613;28;20475;-78
2024/03/10 06:27:48;;;;;;;42.80;24.37;;;;;;;;;;4973924;28;20455;-79
2024/03/10 06:30:14;;;;;;;37.80;24.00;;;;;;;;;;4973486;28;20504;-77
2024/03/10 06:32:40;;;;;;;37.93;23.27;;;;;;;;;;4973919;28;20834;-79
2024/03/10 06:35:06;;;;;;;42.97;24.97;;;;;;;;;;4973716;28;20484;-77
2024/03/10 06:37:35;;;;;;;36.70;25.33;;;;;;;;;;4973802;28;20467;-78
2024/03/10 06:40:05;;;;;;;39.57;24.40;;;;;;;;;;4990963;28;20486;-77
2024/03/10 06:42:31;;;;;;;42.53;25.47;;;;;;;;;;4977266;28;20420;-79
2024/03/10 06:44:58;;;;;;;36.23;24.07;;;;;;;;;;4976871;28;20456;-78
2024/03/10 06:47:24;;;;;;;38.53;23.60;;;;;;;;;;4977145;28;20429;-77
2024/03/10 06:49:50;;;;;;;31.43;22.17;;;;;;;;;;4977108;28;20422;-78
2024/03/10 06:52:16;;;;;;;41.40;24.70;;;;;;;;;;4977076;28;20846;-78
2024/03/10 06:54:43;;;;;;;35.67;23.93;;;;;;;;;;4976908;28;20464;-79
2024/03/10 06:57:09;;;;;;;37.73;24.83;;;;;;;;;;4976923;28;20473;-81
2024/03/10 06:59:35;;;;;;;32.40;22.53;;;;;;;;;;4976654;28;20415;-78
2024/03/10 07:02:01;;;;;;;30.63;19.30;;;;;;;;;;4976920;28;20547;-79
2024/03/10 07:04:27;;;;;;;34.17;23.00;;;;;;;;;;4976808;28;20419;-82
2024/03/10 07:06:54;;;;;;;34.40;23.03;;;;;;;;;;4985774;28;20503;-78
2024/03/10 07:09:23;;;;;;;33.57;22.67;;;;;;;;;;4996385;28;20442;-79
2024/03/10 07:11:49;;;;;;;34.77;22.73;;;;;;;;;;4996191;28;20903;-79
2024/03/10 07:14:15;;;;;;;32.50;22.07;;;;;;;;;;4995915;28;20412;-81
2024/03/10 07:16:46;;;;;;;32.20;21.30;;;;;;;;;;4996136;28;20483;-79
2024/03/10 07:19:12;;;;;;;34.80;22.67;;;;;;;;;;4996069;28;20507;-79
2024/03/10 07:21:38;;;;;;;31.80;21.13;;;;;;;;;;4995897;28;20439;-79
2024/03/10 07:24:04;;;;;;;31.67;22.40;;;;;;;;;;4995945;28;20414;-79
2024/03/10 07:26:34;;;;;;;32.70;21.30;;;;;;;;;;4995975;28;20232;-77
2024/03/10 07:29:00;;;;;;;29.87;20.73;;;;;;;;;;4995893;28;20454;-77
2024/03/10 07:31:26;;;;;;;33.23;20.70;;;;;;;;;;4995423;28;20409;-78
2024/03/10 07:33:53;;;;;;;33.20;21.80;;;;;;;;;;4995694;28;20495;-78
2024/03/10 07:36:19;;;;;;;32.87;21.90;;;;;;;;;;4995584;28;20473;-78
2024/03/10 07:38:45;;;;;;;33.30;22.47;;;;;;;;;;4995673;28;20426;-78
2024/03/10 07:41:11;;;;;;;31.33;20.80;;;;;;;;;;4995623;28;20429;-78
2024/03/10 07:43:37;;;;;;;30.17;22.33;;;;;;;;;;4995481;28;20425;-78
2024/03/10 07:46:05;;;;;;;31.80;20.87;;;;;;;;;;4995126;28;20446;-78
2024/03/10 07:48:32;;;;;;;33.53;22.23;;;;;;;;;;4995410;28;20912;-78
2024/03/10 07:50:58;;;;;;;30.03;21.20;;;;;;;;;;4994182;28;20884;-81
2024/03/10 07:53:23;;;;;;;31.70;21.80;;;;;;;;;;4995302;28;20438;-79
2024/03/10 07:55:49;;;;;;;31.30;22.30;;;;;;;;;;4995198;28;20478;-79
2024/03/10 07:58:15;;;;;;;31.63;23.30;;;;;;;;;;4995304;28;20545;-78
2024/03/10 08:00:42;;;;;;;25.13;20.13;;;;;;;;;;4994964;28;20429;-79
2024/03/10 08:03:09;;;;;;;26.97;21.40;;;;;;;;;;4995248;28;20411;-78
2024/03/10 08:05:35;;;;;;;27.60;21.70;;;;;;;;;;4995092;28;20421;-78
2024/03/10 08:08:01;;;;;;;26.43;20.57;;;;;;;;;;4995128;28;20414;-78
2024/03/10 08:10:27;;;;;;;27.17;21.77;;;;;;;;;;4995033;28;20438;-79
2024/03/10 08:12:55;;;;;;;28.43;22.57;;;;;;;;;;4995058;28;20420;-80
2024/03/10 08:15:21;;;;;;;29.33;22.10;;;;;;;;;;4994503;28;20482;-79
2024/03/10 08:17:47;;;;;;;27.90;21.50;;;;;;;;;;4994636;28;20872;-79
2024/03/10 08:20:14;;;;;;;27.87;22.07;;;;;;;;;;4994859;28;20424;-78
2024/03/10 08:22:41;;;;;;;26.30;21.57;;;;;;;;;;4994807;28;20777;-79
2024/03/10 08:25:07;;;;;;;27.53;21.70;;;;;;;;;;4995020;28;20581;-82
2024/03/10 08:27:33;;;;;;;26.60;22.70;;;;;;;;;;4994818;28;20793;-83
2024/03/10 08:29:59;;;;;;;25.00;20.87;;;;;;;;;;4994406;28;20449;-79
2024/03/10 08:32:26;;;;;;;24.17;19.70;;;;;;;;;;4994765;28;20748;-79
2024/03/10 08:34:53;;;;;;;29.50;21.63;;;;;;;;;;4994574;28;20459;-81
2024/03/10 08:37:19;;;;;;;27.07;21.10;;;;;;;;;;4994632;28;20422;-80
2024/03/10 08:39:47;;;;;;;29.20;22.20;;;;;;;;;;4993969;28;20494;-82
2024/03/10 08:42:15;;;;;;;25.97;19.50;;;;;;;;;;4994451;28;20450;-78
2024/03/10 08:44:41;;;;;;;24.90;21.30;;;;;;;;;;4994018;28;20449;-78
2024/03/10 08:47:07;;;;;;;25.83;22.20;;;;;;;;;;4994458;28;20469;-78
2024/03/10 08:49:33;;;;;;;24.33;21.00;;;;;;;;;;4994353;28;20777;-79
2024/03/10 08:52:01;;;;;;;25.33;20.43;;;;;;;;;;4994427;28;20407;-78
2024/03/10 08:54:29;;;;;;;27.07;21.93;;;;;;;;;;4993450;28;20485;-81
2024/03/10 08:56:55;;;;;;;25.27;21.20;;;;;;;;;;4994068;28;20419;-79
2024/03/10 08:59:20;;;;;;;28.10;21.73;;;;;;;;;;4992309;28;20477;-82
2024/03/10 09:01:46;;;;;;;25.80;22.90;;;;;;;;;;4993848;28;20434;-79
2024/03/10 09:04:12;;;;;;;26.33;21.00;;;;;;;;;;4994026;28;20573;-79
2024/03/10 09:06:38;;;;;;;24.27;20.70;;;;;;;;;;4993423;28;20181;-80
2024/03/10 09:09:04;;;;;;;27.10;21.53;;;;;;;;;;4993355;28;20214;-79
2024/03/10 09:11:31;;;;;;;25.87;21.90;;;;;;;;;;4992465;28;20427;-80
2024/03/10 09:13:58;;;;;;;25.97;21.53;;;;;;;;;;4991951;28;20183;-79
2024/03/10 09:16:24;;;;;;;24.00;20.40;;;;;;;;;;4993452;28;20481;-79
2024/03/10 09:18:51;;;;;;;24.30;21.70;;;;;;;;;;4993729;28;20471;-79
2024/03/10 09:21:17;;;;;;;25.63;20.80;;;;;;;;;;4993904;28;20469;-79
2024/03/10 09:23:44;;;;;;;27.53;23.00;;;;;;;;;;4993722;28;20911;-78
2024/03/10 09:26:11;;;;;;;26.60;21.87;;;;;;;;;;4993887;28;20512;-80
2024/03/10 09:28:37;;;;;;;24.87;22.17;;;;;;;;;;4993749;28;20529;-79
2024/03/10 09:31:03;;;;;;;24.93;22.30;;;;;;;;;;4993415;28;20450;-80
2024/03/10 09:33:29;;;;;;;24.50;21.90;;;;;;;;;;4993767;28;20178;-80
2024/03/10 09:35:58;;;;;;;25.40;21.50;;;;;;;;;;4993615;28;21048;-80
2024/03/10 09:38:24;;;;;;;24.57;21.37;;;;;;;;;;4993623;28;20648;-79
2024/03/10 09:40:50;;;;;;;23.00;20.50;;;;;;;;;;4993661;28;20500;-78
2024/03/10 09:43:16;;;;;;;21.03;18.73;;;;;;;;;;4993756;28;20894;-78
2024/03/10 09:45:46;;;;;;;27.00;20.93;;;;;;;;;;4993338;28;20186;-79
2024/03/10 09:48:12;;;;;;;25.17;20.13;;;;;;;;;;4993581;28;20891;-78
2024/03/10 09:50:42;;;;;;;23.37;20.67;;;;;;;;;;4993665;28;20437;-79
2024/03/10 09:53:08;;;;;;;22.33;19.93;;;;;;;;;;4993655;28;20408;-77
2024/03/10 09:55:37;;;;;;;22.97;20.40;;;;;;;;;;4993431;28;20575;-78
2024/03/10 09:58:10;;;;;;;24.80;20.80;;;;;;;;;;4993499;28;20417;-77
2024/03/10 10:00:38;;;;;;;21.60;19.03;;;;;;;;;;4993213;28;20403;-77
2024/03/10 10:03:08;;;;;;;24.50;21.97;;;;;;;;;;4993405;28;20418;-77
2024/03/10 10:05:42;;;;;;;26.93;20.10;;;;;;;;;;4993447;28;20409;-77
2024/03/10 10:08:10;;;;;;;23.50;20.97;;;;;;;;;;4993437;28;20416;-77
2024/03/10 10:10:36;;;;;;;26.30;20.87;;;;;;;;;;4993449;28;20806;-77
2024/03/10 10:13:03;;;;;;;23.93;20.90;;;;;;;;;;4993444;28;20405;-78
2024/03/10 10:15:38;;;;;;;25.23;21.27;;;;;;;;;;4996178;28;20997;-77
2024/03/10 10:18:04;;;;;;;22.83;20.43;;;;;;;;;;4997044;28;20455;-77
2024/03/10 10:20:30;;;;;;;23.70;20.50;;;;;;;;;;4997163;28;20420;-78
2024/03/10 10:22:56;;;;;;;29.43;21.83;;;;;;;;;;4997095;28;20415;-80
2024/03/10 10:25:22;;;;;;;28.60;21.33;;;;;;;;;;4997054;28;20417;-79
2024/03/10 10:27:52;;;;;;;26.30;21.17;;;;;;;;;;4996961;28;20422;-79
2024/03/10 10:30:19;;;;;;;27.80;21.50;;;;;;;;;;4996535;28;20441;-79
2024/03/10 10:32:47;;;;;;;23.67;21.00;;;;;;;;;;4996654;28;20422;-84
2024/03/10 10:35:12;;;;;;;27.90;22.77;;;;;;;;;;4996741;28;20481;-80
2024/03/10 10:37:38;;;;;;;25.67;22.47;;;;;;;;;;4996856;28;20534;-79
2024/03/10 10:40:11;;;;;;;23.90;19.80;;;;;;;;;;4996725;28;20632;-79
2024/03/10 10:42:37;;;;;;;26.63;21.77;;;;;;;;;;4996694;28;20699;-77
2024/03/10 10:45:04;;;;;;;25.53;20.67;;;;;;;;;;4996384;28;20426;-78
2024/03/10 10:47:31;;;;;;;22.53;19.67;;;;;;;;;;4996709;28;20465;-77
2024/03/10 10:49:57;;;;;;;28.23;21.63;;;;;;;;;;4996519;28;20418;-78
2024/03/10 10:52:23;;;;;;;26.40;21.60;;;;;;;;;;4996381;28;20768;-77
2024/03/10 10:54:49;;;;;;;24.63;20.27;;;;;;;;;;4996424;28;20209;-77
2024/03/10 10:57:15;;;;;;;20.90;18.10;;;;;;;;;;4996480;28;20186;-78
2024/03/10 10:59:46;;;;;;;22.97;20.53;;;;;;;;;;4996050;28;20416;-78
2024/03/10 11:02:12;;;;;;;24.20;20.47;;;;;;;;;;4996437;28;20521;-77
2024/03/10 11:04:38;;;;;;;24.30;20.10;;;;;;;;;;4995123;28;20430;-77
2024/03/10 11:07:05;;;;;;;24.80;20.23;;;;;;;;;;4995015;28;20214;-79
2024/03/10 11:09:31;;;;;;;26.70;20.60;;;;;;;;;;4996187;28;20429;-77
2024/03/10 11:11:58;;;;;;;22.90;20.40;;;;;;;;;;4996234;28;20469;-77
2024/03/10 11:14:25;;;;;;;23.43;20.40;;;;;;;;;;4995662;28;20776;-80
2024/03/10 11:17:10;;;;;;;24.13;20.27;;;;;;;;;;4994641;28;20423;-81
2024/03/10 11:19:38;;;;;;;23.40;19.30;;;;;;;;;;4996066;28;20407;-79
2024/03/10 11:22:07;;;;;;;21.67;16.60;;;;;;;;;;4996014;28;20424;-79
2024/03/10 11:24:33;;;;;;;25.57;19.47;;;;;;;;;;4995819;28;20411;-79
2024/03/10 11:27:12;;;;;;;25.47;19.73;;;;;;;;;;4995864;28;20454;-79
2024/03/10 11:29:39;;;;;;;22.50;20.03;;;;;;;;;;4995427;28;20975;-80
2024/03/10 11:32:25;;;;;;;23.73;21.23;;;;;;;;;;4995839;28;20501;-80
2024/03/10 11:34:51;;;;;;;24.70;22.10;;;;;;;;;;4995605;28;20464;-80
2024/03/10 11:37:18;;;;;;;24.43;18.87;;;;;;;;;;4995828;28;20468;-79
2024/03/10 11:39:44;;;;;;;22.67;18.27;;;;;;;;;;4994473;28;20424;-80
2024/03/10 11:42:10;;;;;;;25.20;21.63;;;;;;;;;;4992236;28;20952;-80
2024/03/10 11:44:36;;;;;;;24.20;19.80;;;;;;;;;;4995026;28;20413;-78
2024/03/10 11:47:05;;;;;;;25.90;21.17;;;;;;;;;;4995489;28;20183;-79
2024/03/10 11:49:31;;;;;;;23.60;20.77;;;;;;;;;;4995298;28;20410;-79
2024/03/10 11:51:57;;;;;;;23.77;20.03;;;;;;;;;;4995262;28;20429;-80
2024/03/10 11:54:24;;;;;;;26.10;20.73;;;;;;;;;;4995132;28;20414;-80
2024/03/10 11:56:51;;;;;;;22.70;20.30;;;;;;;;;;4994034;28;20421;-79
2024/03/10 11:59:17;;;;;;;25.87;20.50;;;;;;;;;;4994898;28;20461;-79
2024/03/10 12:01:44;;;;;;;24.10;20.80;;;;;;;;;;4995119;28;20420;-80
2024/03/10 12:04:12;;;;;;;23.97;20.03;;;;;;;;;;4994958;28;20405;-81
2024/03/10 12:06:38;;;;;;;23.83;20.63;;;;;;;;;;4994794;28;20749;-78
2024/03/10 12:09:13;;;;;;;24.30;21.13;;;;;;;;;;4993851;28;20450;-79
2024/03/10 12:11:40;;;;;;;24.30;18.53;;;;;;;;;;4995244;28;20171;-77
2024/03/10 12:14:08;;;;;;;25.50;19.70;;;;;;;;;;4994692;28;20946;-80
2024/03/10 12:16:35;;;;;;;22.50;20.10;;;;;;;;;;4994651;28;20482;-80
2024/03/10 12:19:01;;;;;;;24.57;19.40;;;;;;;;;;4994669;28;20462;-79
2024/03/10 12:21:30;;;;;;;23.17;20.00;;;;;;;;;;4993680;28;20439;-79
2024/03/10 12:23:56;;;;;;;23.03;18.93;;;;;;;;;;4994688;28;20399;-77
2024/03/10 12:26:22;;;;;;;24.13;20.33;;;;;;;;;;4994727;28;20403;-77
2024/03/10 12:28:48;;;;;;;24.10;19.50;;;;;;;;;;4994046;28;20412;-77
2024/03/10 12:31:15;;;;;;;23.73;21.13;;;;;;;;;;4994621;28;20744;-80
2024/03/10 12:33:42;;;;;;;26.80;21.30;;;;;;;;;;4994554;28;20408;-81
2024/03/10 12:36:12;;;;;;;25.43;20.20;;;;;;;;;;4994108;28;20514;-80
2024/03/10 12:38:42;;;;;;;22.60;19.17;;;;;;;;;;4994162;28;20760;-77
2024/03/10 12:41:08;;;;;;;23.40;18.57;;;;;;;;;;4994272;28;20452;-79
2024/03/10 12:43:34;;;;;;;23.43;20.93;;;;;;;;;;4993985;28;20495;-77
2024/03/10 12:46:04;;;;;;;23.20;19.80;;;;;;;;;;4994287;28;20427;-78
2024/03/10 12:48:30;;;;;;;25.10;20.50;;;;;;;;;;4993112;28;20931;-80
2024/03/10 12:50:56;;;;;;;27.53;21.20;;;;;;;;;;4994308;28;20439;-77
2024/03/10 12:53:23;;;;;;;23.13;19.00;;;;;;;;;;4994224;28;20416;-77
2024/03/10 12:55:50;;;;;;;25.77;20.30;;;;;;;;;;4994167;28;20548;-79
2024/03/10 12:58:16;;;;;;;24.13;19.07;;;;;;;;;;4993697;28;20952;-78
2024/03/10 13:00:42;;;;;;;25.00;19.30;;;;;;;;;;4994114;28;20434;-78
2024/03/10 13:03:09;;;;;;;22.13;18.27;;;;;;;;;;4993826;28;20422;-78
2024/03/10 13:05:35;;;;;;;23.27;18.33;;;;;;;;;;4994083;28;20523;-77
2024/03/10 13:08:01;;;;;;;26.83;20.93;;;;;;;;;;4993952;28;20560;-81
2024/03/10 13:10:28;;;;;;;23.30;18.50;;;;;;;;;;4993632;28;20221;-83
2024/03/10 13:12:55;;;;;;;23.83;19.10;;;;;;;;;;4994009;28;20442;-80
2024/03/10 13:15:21;;;;;;;22.03;19.27;;;;;;;;;;4993406;28;20493;-79
2024/03/10 13:17:47;;;;;;;23.43;18.73;;;;;;;;;;4993596;28;20564;-79
2024/03/10 13:20:16;;;;;;;27.70;19.30;;;;;;;;;;4993686;28;20491;-79
2024/03/10 13:22:43;;;;;;;21.60;18.00;;;;;;;;;;4993671;28;20418;-79
2024/03/10 13:25:10;;;;;;;25.00;19.67;;;;;;;;;;4993683;28;20490;-78
2024/03/10 13:27:36;;;;;;;21.47;18.40;;;;;;;;;;4993813;28;20404;-82
2024/03/10 13:30:05;;;;;;;22.07;18.03;;;;;;;;;;4993242;28;20799;-78
2024/03/10 13:32:31;;;;;;;22.17;19.60;;;;;;;;;;4993511;28;20405;-78
2024/03/10 13:34:57;;;;;;;24.37;18.97;;;;;;;;;;4992236;28;20536;-78
2024/03/10 13:37:23;;;;;;;25.53;20.07;;;;;;;;;;4993664;28;20417;-80
2024/03/10 13:39:49;;;;;;;23.77;18.57;;;;;;;;;;4993578;28;20708;-79
2024/03/10 13:42:15;;;;;;;23.57;18.73;;;;;;;;;;4992361;28;20416;-79
2024/03/10 13:44:41;;;;;;;23.37;19.53;;;;;;;;;;4993185;28;20804;-78
2024/03/10 13:47:07;;;;;;;26.10;18.20;;;;;;;;;;4989707;28;20428;-78
2024/03/10 13:49:33;;;;;;;22.00;16.90;;;;;;;;;;4995397;28;20530;-79
2024/03/10 13:51:59;;;;;;;22.97;16.70;;;;;;;;;;4997445;28;20404;-79
2024/03/10 13:54:25;;;;;;;23.70;19.17;;;;;;;;;;4997383;28;20417;-79
2024/03/10 13:56:51;;;;;;;21.33;17.67;;;;;;;;;;4997513;28;20429;-79
2024/03/10 13:59:17;;;;;;;22.90;17.53;;;;;;;;;;4997158;28;20492;-79
2024/03/10 14:01:43;;;;;;;19.37;16.60;;;;;;;;;;4997354;28;20645;-79
2024/03/10 14:04:10;;;;;;;26.00;16.70;;;;;;;;;;4997191;28;20424;-79
2024/03/10 14:06:37;;;;;;;22.20;18.20;;;;;;;;;;4997309;28;20815;-79
2024/03/10 14:09:03;;;;;;;23.33;18.73;;;;;;;;;;4997268;28;20465;-79
2024/03/10 14:11:29;;;;;;;26.17;20.33;;;;;;;;;;4997162;28;20416;-79
2024/03/10 14:13:55;;;;;;;26.00;18.20;;;;;;;;;;4996706;28;20445;-78
2024/03/10 14:16:24;;;;;;;25.57;19.13;;;;;;;;;;4996979;28;20484;-79
2024/03/10 14:18:50;;;;;;;25.50;19.63;;;;;;;;;;4996943;28;20859;-80
2024/03/10 14:21:16;;;;;;;25.30;19.97;;;;;;;;;;4997140;28;20417;-78
2024/03/10 14:23:42;;;;;;;26.23;19.90;;;;;;;;;;4996962;28;20929;-79
2024/03/10 14:26:08;;;;;;;26.80;19.80;;;;;;;;;;4995537;28;20419;-78
2024/03/10 14:28:34;;;;;;;24.93;18.63;;;;;;;;;;4996453;28;20420;-80
2024/03/10 14:31:06;;;;;;;25.97;20.40;;;;;;;;;;4996804;28;20470;-80
2024/03/10 14:33:33;;;;;;;21.60;18.60;;;;;;;;;;4996805;28;20419;-82
2024/03/10 14:36:00;;;;;;;24.93;18.60;;;;;;;;;;4996018;28;20479;-78
2024/03/10 14:38:26;;;;;;;22.70;18.40;;;;;;;;;;4996772;28;20412;-80